sensor_id;sensor_type;location;lat;lon;timestamp;P1;durP1;ratioP1;P2;durP2;ratioP2
23716;SDS011;22094;52.130;5.598;2023-03-16T00:00:37;8.50;;;4.80;;
23716;SDS011;22094;52.130;5.598;2023-03-16T00:03:04;7.05;;;4.65;;
23716;SDS011;22094;52.130;5.598;2023-03-16T00:05:29;6.25;;;4.85;;
23716;SDS011;22094;52.130;5.598;2023-03-16T00:07:56;8.23;;;4.53;;
23716;SDS011;22094;52.130;5.598;2023-03-16T00:10:21;6.60;;;4.72;;
23716;SDS011;22094;52.130;5.598;2023-03-16T00:12:51;7.32;;;4.72;;
23716;SDS011;22094;52.130;5.598;2023-03-16T00:15:17;7.93;;;4.72;;
23716;SDS011;22094;52.130;5.598;2023-03-16T00:17:43;7.97;;;5.07;;
23716;SDS011;22094;52.130;5.598;2023-03-16T00:20:12;8.98;;;5.28;;
23716;SDS011;22094;52.130;5.598;2023-03-16T00:22:41;6.32;;;5.20;;
23716;SDS011;22094;52.130;5.598;2023-03-16T00:25:08;7.10;;;5.40;;
23716;SDS011;22094;52.130;5.598;2023-03-16T00:27:35;7.22;;;5.38;;
23716;SDS011;22094;52.130;5.598;2023-03-16T00:30:01;9.80;;;5.47;;
23716;SDS011;22094;52.130;5.598;2023-03-16T00:32:27;9.10;;;5.50;;
23716;SDS011;22094;52.130;5.598;2023-03-16T00:34:56;7.88;;;5.60;;
23716;SDS011;22094;52.130;5.598;2023-03-16T00:37:22;8.00;;;5.93;;
23716;SDS011;22094;52.130;5.598;2023-03-16T00:39:49;8.20;;;5.70;;
23716;SDS011;22094;52.130;5.598;2023-03-16T00:42:16;6.75;;;6.05;;
23716;SDS011;22094;52.130;5.598;2023-03-16T00:44:42;6.82;;;5.53;;
23716;SDS011;22094;52.130;5.598;2023-03-16T00:47:09;8.68;;;5.50;;
23716;SDS011;22094;52.130;5.598;2023-03-16T00:49:38;8.07;;;5.32;;
23716;SDS011;22094;52.130;5.598;2023-03-16T00:52:07;7.32;;;5.45;;
23716;SDS011;22094;52.130;5.598;2023-03-16T00:54:38;7.85;;;5.95;;
23716;SDS011;22094;52.130;5.598;2023-03-16T00:57:06;9.98;;;6.00;;
23716;SDS011;22094;52.130;5.598;2023-03-16T00:59:33;7.07;;;5.30;;
23716;SDS011;22094;52.130;5.598;2023-03-16T01:02:02;7.97;;;5.75;;
23716;SDS011;22094;52.130;5.598;2023-03-16T01:04:28;7.78;;;5.60;;
23716;SDS011;22094;52.130;5.598;2023-03-16T01:06:54;8.30;;;5.78;;
23716;SDS011;22094;52.130;5.598;2023-03-16T01:09:19;9.45;;;5.88;;
23716;SDS011;22094;52.130;5.598;2023-03-16T01:11:45;9.70;;;6.35;;
23716;SDS011;22094;52.130;5.598;2023-03-16T01:14:14;9.77;;;6.28;;
23716;SDS011;22094;52.130;5.598;2023-03-16T01:16:40;8.68;;;6.07;;
23716;SDS011;22094;52.130;5.598;2023-03-16T01:19:10;9.70;;;6.03;;
23716;SDS011;22094;52.130;5.598;2023-03-16T01:21:37;7.30;;;5.78;;
23716;SDS011;22094;52.130;5.598;2023-03-16T01:24:03;10.75;;;6.38;;
23716;SDS011;22094;52.130;5.598;2023-03-16T01:26:29;9.15;;;6.30;;
23716;SDS011;22094;52.130;5.598;2023-03-16T01:28:55;8.07;;;5.93;;
23716;SDS011;22094;52.130;5.598;2023-03-16T01:31:20;8.95;;;6.00;;
23716;SDS011;22094;52.130;5.598;2023-03-16T01:33:46;9.55;;;6.03;;
23716;SDS011;22094;52.130;5.598;2023-03-16T01:36:15;9.75;;;6.15;;
23716;SDS011;22094;52.130;5.598;2023-03-16T01:38:43;7.78;;;6.28;;
23716;SDS011;22094;52.130;5.598;2023-03-16T01:41:09;9.43;;;6.30;;
23716;SDS011;22094;52.130;5.598;2023-03-16T01:43:36;12.40;;;5.95;;
23716;SDS011;22094;52.130;5.598;2023-03-16T01:53:49;8.40;;;6.32;;
23716;SDS011;22094;52.130;5.598;2023-03-16T01:56:21;8.60;;;6.68;;
23716;SDS011;22094;52.130;5.598;2023-03-16T01:58:55;7.82;;;6.30;;
23716;SDS011;22094;52.130;5.598;2023-03-16T02:01:24;8.60;;;6.72;;
23716;SDS011;22094;52.130;5.598;2023-03-16T02:03:53;9.55;;;6.40;;
23716;SDS011;22094;52.130;5.598;2023-03-16T02:06:22;9.23;;;6.57;;
23716;SDS011;22094;52.130;5.598;2023-03-16T02:08:48;7.90;;;6.15;;
23716;SDS011;22094;52.130;5.598;2023-03-16T02:11:15;9.05;;;6.32;;
23716;SDS011;22094;52.130;5.598;2023-03-16T02:13:46;9.85;;;6.28;;
23716;SDS011;22094;52.130;5.598;2023-03-16T02:16:13;11.07;;;6.15;;
23716;SDS011;22094;52.130;5.598;2023-03-16T02:18:43;8.75;;;6.47;;
23716;SDS011;22094;52.130;5.598;2023-03-16T02:24:10;9.85;;;6.05;;
23716;SDS011;22094;52.130;5.598;2023-03-16T02:26:47;8.88;;;7.20;;
23716;SDS011;22094;52.130;5.598;2023-03-16T02:32:10;12.07;;;6.43;;
23716;SDS011;22094;52.130;5.598;2023-03-16T02:34:37;6.72;;;5.50;;
23716;SDS011;22094;52.130;5.598;2023-03-16T02:37:03;9.52;;;6.30;;
23716;SDS011;22094;52.130;5.598;2023-03-16T02:39:30;6.88;;;5.90;;
23716;SDS011;22094;52.130;5.598;2023-03-16T02:41:55;8.57;;;6.05;;
23716;SDS011;22094;52.130;5.598;2023-03-16T02:44:25;7.80;;;6.05;;
23716;SDS011;22094;52.130;5.598;2023-03-16T02:46:58;9.30;;;5.95;;
23716;SDS011;22094;52.130;5.598;2023-03-16T02:49:35;8.95;;;5.97;;
23716;SDS011;22094;52.130;5.598;2023-03-16T02:52:08;7.70;;;5.63;;
23716;SDS011;22094;52.130;5.598;2023-03-16T02:54:34;10.85;;;6.10;;
23716;SDS011;22094;52.130;5.598;2023-03-16T02:56:59;9.18;;;6.13;;
23716;SDS011;22094;52.130;5.598;2023-03-16T02:59:25;9.02;;;6.38;;
23716;SDS011;22094;52.130;5.598;2023-03-16T03:01:51;9.02;;;6.18;;
23716;SDS011;22094;52.130;5.598;2023-03-16T03:04:17;7.45;;;5.95;;
23716;SDS011;22094;52.130;5.598;2023-03-16T03:06:42;8.98;;;6.00;;
23716;SDS011;22094;52.130;5.598;2023-03-16T03:09:08;8.10;;;5.45;;
23716;SDS011;22094;52.130;5.598;2023-03-16T03:11:37;9.85;;;6.60;;
23716;SDS011;22094;52.130;5.598;2023-03-16T03:14:03;7.03;;;5.78;;
23716;SDS011;22094;52.130;5.598;2023-03-16T03:16:29;8.68;;;5.65;;
23716;SDS011;22094;52.130;5.598;2023-03-16T03:18:55;9.68;;;5.72;;
23716;SDS011;22094;52.130;5.598;2023-03-16T03:21:21;8.23;;;6.22;;
23716;SDS011;22094;52.130;5.598;2023-03-16T03:23:48;6.88;;;6.03;;
23716;SDS011;22094;52.130;5.598;2023-03-16T03:26:14;7.00;;;5.97;;
23716;SDS011;22094;52.130;5.598;2023-03-16T03:28:40;8.90;;;5.40;;
23716;SDS011;22094;52.130;5.598;2023-03-16T03:31:06;7.97;;;5.72;;
23716;SDS011;22094;52.130;5.598;2023-03-16T03:33:37;9.18;;;6.18;;
23716;SDS011;22094;52.130;5.598;2023-03-16T03:36:03;12.10;;;6.30;;
23716;SDS011;22094;52.130;5.598;2023-03-16T03:38:29;7.82;;;5.55;;
23716;SDS011;22094;52.130;5.598;2023-03-16T03:40:54;8.98;;;5.85;;
23716;SDS011;22094;52.130;5.598;2023-03-16T03:43:23;9.10;;;6.00;;
23716;SDS011;22094;52.130;5.598;2023-03-16T03:45:53;7.57;;;5.93;;
23716;SDS011;22094;52.130;5.598;2023-03-16T03:48:20;8.02;;;6.13;;
23716;SDS011;22094;52.130;5.598;2023-03-16T03:50:47;7.80;;;6.07;;
23716;SDS011;22094;52.130;5.598;2023-03-16T03:53:13;10.43;;;6.85;;
23716;SDS011;22094;52.130;5.598;2023-03-16T03:55:38;8.05;;;6.20;;
23716;SDS011;22094;52.130;5.598;2023-03-16T03:58:04;9.77;;;6.97;;
23716;SDS011;22094;52.130;5.598;2023-03-16T04:00:30;9.02;;;6.40;;
23716;SDS011;22094;52.130;5.598;2023-03-16T04:02:55;7.32;;;6.38;;
23716;SDS011;22094;52.130;5.598;2023-03-16T04:05:21;8.93;;;6.95;;
23716;SDS011;22094;52.130;5.598;2023-03-16T04:07:47;9.45;;;6.25;;
23716;SDS011;22094;52.130;5.598;2023-03-16T04:10:14;9.43;;;6.43;;
23716;SDS011;22094;52.130;5.598;2023-03-16T04:12:40;10.45;;;6.53;;
23716;SDS011;22094;52.130;5.598;2023-03-16T04:15:05;9.32;;;6.38;;
23716;SDS011;22094;52.130;5.598;2023-03-16T04:17:31;9.30;;;6.45;;
23716;SDS011;22094;52.130;5.598;2023-03-16T04:19:58;10.07;;;6.93;;
23716;SDS011;22094;52.130;5.598;2023-03-16T04:22:23;9.75;;;6.57;;
23716;SDS011;22094;52.130;5.598;2023-03-16T04:24:49;9.15;;;6.78;;
23716;SDS011;22094;52.130;5.598;2023-03-16T04:27:16;9.07;;;6.35;;
23716;SDS011;22094;52.130;5.598;2023-03-16T04:29:42;8.98;;;6.68;;
23716;SDS011;22094;52.130;5.598;2023-03-16T04:32:07;10.05;;;6.53;;
23716;SDS011;22094;52.130;5.598;2023-03-16T04:34:33;8.20;;;6.65;;
23716;SDS011;22094;52.130;5.598;2023-03-16T04:36:59;9.85;;;6.97;;
23716;SDS011;22094;52.130;5.598;2023-03-16T04:39:26;9.80;;;6.75;;
23716;SDS011;22094;52.130;5.598;2023-03-16T04:41:51;10.25;;;6.60;;
23716;SDS011;22094;52.130;5.598;2023-03-16T04:44:17;13.70;;;8.82;;
23716;SDS011;22094;52.130;5.598;2023-03-16T04:46:42;17.05;;;10.70;;
23716;SDS011;22094;52.130;5.598;2023-03-16T04:49:08;13.23;;;9.32;;
23716;SDS011;22094;52.130;5.598;2023-03-16T04:51:34;11.55;;;8.85;;
23716;SDS011;22094;52.130;5.598;2023-03-16T04:54:04;12.55;;;8.77;;
23716;SDS011;22094;52.130;5.598;2023-03-16T04:56:30;11.60;;;8.40;;
23716;SDS011;22094;52.130;5.598;2023-03-16T04:58:56;10.93;;;8.75;;
23716;SDS011;22094;52.130;5.598;2023-03-16T05:01:22;11.48;;;8.02;;
23716;SDS011;22094;52.130;5.598;2023-03-16T05:03:48;11.88;;;7.80;;
23716;SDS011;22094;52.130;5.598;2023-03-16T05:06:16;11.13;;;7.72;;
23716;SDS011;22094;52.130;5.598;2023-03-16T05:08:42;11.43;;;7.35;;
23716;SDS011;22094;52.130;5.598;2023-03-16T05:11:07;9.95;;;6.70;;
23716;SDS011;22094;52.130;5.598;2023-03-16T05:13:33;10.10;;;7.22;;
23716;SDS011;22094;52.130;5.598;2023-03-16T05:15:59;11.35;;;6.78;;
23716;SDS011;22094;52.130;5.598;2023-03-16T05:18:25;10.27;;;6.75;;
23716;SDS011;22094;52.130;5.598;2023-03-16T05:20:51;7.72;;;6.20;;
23716;SDS011;22094;52.130;5.598;2023-03-16T05:23:19;8.60;;;6.90;;
23716;SDS011;22094;52.130;5.598;2023-03-16T05:25:46;9.07;;;6.85;;
23716;SDS011;22094;52.130;5.598;2023-03-16T05:28:12;7.30;;;5.68;;
23716;SDS011;22094;52.130;5.598;2023-03-16T05:30:37;9.10;;;5.88;;
23716;SDS011;22094;52.130;5.598;2023-03-16T05:33:03;10.90;;;5.93;;
23716;SDS011;22094;52.130;5.598;2023-03-16T05:35:29;8.57;;;6.03;;
23716;SDS011;22094;52.130;5.598;2023-03-16T05:37:55;7.65;;;5.85;;
23716;SDS011;22094;52.130;5.598;2023-03-16T05:40:20;6.63;;;5.55;;
23716;SDS011;22094;52.130;5.598;2023-03-16T05:42:47;8.45;;;6.38;;
23716;SDS011;22094;52.130;5.598;2023-03-16T05:45:14;9.25;;;5.38;;
23716;SDS011;22094;52.130;5.598;2023-03-16T05:47:41;7.45;;;5.40;;
23716;SDS011;22094;52.130;5.598;2023-03-16T05:50:08;6.38;;;5.07;;
23716;SDS011;22094;52.130;5.598;2023-03-16T05:52:35;7.32;;;5.32;;
23716;SDS011;22094;52.130;5.598;2023-03-16T05:55:02;8.68;;;5.55;;
23716;SDS011;22094;52.130;5.598;2023-03-16T05:57:29;10.95;;;5.60;;
23716;SDS011;22094;52.130;5.598;2023-03-16T05:59:55;7.57;;;5.68;;
23716;SDS011;22094;52.130;5.598;2023-03-16T06:02:21;7.63;;;5.55;;
23716;SDS011;22094;52.130;5.598;2023-03-16T06:04:46;6.82;;;5.57;;
23716;SDS011;22094;52.130;5.598;2023-03-16T06:07:12;8.60;;;6.00;;
23716;SDS011;22094;52.130;5.598;2023-03-16T06:09:37;7.53;;;5.50;;
23716;SDS011;22094;52.130;5.598;2023-03-16T06:12:03;8.73;;;5.65;;
23716;SDS011;22094;52.130;5.598;2023-03-16T06:14:29;8.32;;;5.88;;
23716;SDS011;22094;52.130;5.598;2023-03-16T06:16:55;9.88;;;5.57;;
23716;SDS011;22094;52.130;5.598;2023-03-16T06:19:20;7.45;;;5.88;;
23716;SDS011;22094;52.130;5.598;2023-03-16T06:21:46;7.55;;;5.88;;
23716;SDS011;22094;52.130;5.598;2023-03-16T06:24:14;8.98;;;5.65;;
23716;SDS011;22094;52.130;5.598;2023-03-16T06:26:40;10.93;;;5.97;;
23716;SDS011;22094;52.130;5.598;2023-03-16T06:29:06;10.07;;;6.38;;
23716;SDS011;22094;52.130;5.598;2023-03-16T06:31:31;11.00;;;6.53;;
23716;SDS011;22094;52.130;5.598;2023-03-16T06:33:58;9.43;;;5.78;;
23716;SDS011;22094;52.130;5.598;2023-03-16T06:36:24;9.50;;;6.40;;
23716;SDS011;22094;52.130;5.598;2023-03-16T06:38:49;9.95;;;6.85;;
23716;SDS011;22094;52.130;5.598;2023-03-16T06:41:15;8.40;;;5.88;;
23716;SDS011;22094;52.130;5.598;2023-03-16T06:43:41;9.98;;;5.82;;
23716;SDS011;22094;52.130;5.598;2023-03-16T06:46:07;9.50;;;5.18;;
23716;SDS011;22094;52.130;5.598;2023-03-16T06:48:33;7.78;;;5.32;;
23716;SDS011;22094;52.130;5.598;2023-03-16T06:50:58;8.95;;;5.38;;
23716;SDS011;22094;52.130;5.598;2023-03-16T06:53:24;11.80;;;6.20;;
23716;SDS011;22094;52.130;5.598;2023-03-16T06:55:50;7.75;;;5.65;;
23716;SDS011;22094;52.130;5.598;2023-03-16T06:58:16;8.15;;;5.60;;
23716;SDS011;22094;52.130;5.598;2023-03-16T07:00:41;8.30;;;5.40;;
23716;SDS011;22094;52.130;5.598;2023-03-16T07:03:07;8.13;;;5.38;;
23716;SDS011;22094;52.130;5.598;2023-03-16T07:05:32;9.55;;;5.47;;
23716;SDS011;22094;52.130;5.598;2023-03-16T07:07:58;9.23;;;5.30;;
23716;SDS011;22094;52.130;5.598;2023-03-16T07:10:24;6.03;;;5.20;;
23716;SDS011;22094;52.130;5.598;2023-03-16T07:12:49;6.63;;;5.57;;
23716;SDS011;22094;52.130;5.598;2023-03-16T07:15:15;7.20;;;5.20;;
23716;SDS011;22094;52.130;5.598;2023-03-16T07:17:41;9.15;;;6.05;;
23716;SDS011;22094;52.130;5.598;2023-03-16T07:20:07;7.63;;;5.20;;
23716;SDS011;22094;52.130;5.598;2023-03-16T07:22:35;8.95;;;5.38;;
23716;SDS011;22094;52.130;5.598;2023-03-16T07:25:01;12.57;;;5.45;;
23716;SDS011;22094;52.130;5.598;2023-03-16T07:27:27;7.55;;;5.60;;
23716;SDS011;22094;52.130;5.598;2023-03-16T07:29:53;8.88;;;5.85;;
23716;SDS011;22094;52.130;5.598;2023-03-16T07:32:19;5.75;;;4.80;;
23716;SDS011;22094;52.130;5.598;2023-03-16T07:34:45;6.63;;;4.97;;
23716;SDS011;22094;52.130;5.598;2023-03-16T07:37:11;6.18;;;5.25;;
23716;SDS011;22094;52.130;5.598;2023-03-16T07:39:37;11.10;;;5.28;;
23716;SDS011;22094;52.130;5.598;2023-03-16T07:42:03;6.22;;;4.75;;
23716;SDS011;22094;52.130;5.598;2023-03-16T07:44:29;6.88;;;5.07;;
23716;SDS011;22094;52.130;5.598;2023-03-16T07:46:55;7.47;;;5.25;;
23716;SDS011;22094;52.130;5.598;2023-03-16T07:49:21;9.93;;;5.30;;
23716;SDS011;22094;52.130;5.598;2023-03-16T07:51:46;8.70;;;5.22;;
23716;SDS011;22094;52.130;5.598;2023-03-16T07:54:12;8.93;;;5.50;;
23716;SDS011;22094;52.130;5.598;2023-03-16T07:56:38;6.93;;;5.10;;
23716;SDS011;22094;52.130;5.598;2023-03-16T07:59:04;11.00;;;5.40;;
23716;SDS011;22094;52.130;5.598;2023-03-16T08:01:29;6.63;;;5.03;;
23716;SDS011;22094;52.130;5.598;2023-03-16T08:03:55;9.13;;;5.50;;
23716;SDS011;22094;52.130;5.598;2023-03-16T08:06:21;10.88;;;5.55;;
23716;SDS011;22094;52.130;5.598;2023-03-16T08:08:49;8.05;;;4.97;;
23716;SDS011;22094;52.130;5.598;2023-03-16T08:11:15;8.93;;;5.40;;
23716;SDS011;22094;52.130;5.598;2023-03-16T08:13:47;7.00;;;5.22;;
23716;SDS011;22094;52.130;5.598;2023-03-16T08:16:18;8.20;;;5.85;;
23716;SDS011;22094;52.130;5.598;2023-03-16T08:18:47;8.93;;;5.10;;
23716;SDS011;22094;52.130;5.598;2023-03-16T08:21:14;7.18;;;4.78;;
23716;SDS011;22094;52.130;5.598;2023-03-16T08:23:41;7.95;;;5.00;;
23716;SDS011;22094;52.130;5.598;2023-03-16T08:26:13;8.10;;;5.32;;
23716;SDS011;22094;52.130;5.598;2023-03-16T08:28:43;7.38;;;4.93;;
23716;SDS011;22094;52.130;5.598;2023-03-16T08:31:10;7.07;;;5.45;;
23716;SDS011;22094;52.130;5.598;2023-03-16T08:33:36;9.95;;;5.72;;
23716;SDS011;22094;52.130;5.598;2023-03-16T08:36:04;7.72;;;5.20;;
23716;SDS011;22094;52.130;5.598;2023-03-16T08:38:30;6.68;;;4.90;;
23716;SDS011;22094;52.130;5.598;2023-03-16T08:40:57;11.23;;;5.63;;
23716;SDS011;22094;52.130;5.598;2023-03-16T08:43:24;7.82;;;4.80;;
23716;SDS011;22094;52.130;5.598;2023-03-16T08:45:51;7.82;;;4.72;;
23716;SDS011;22094;52.130;5.598;2023-03-16T08:48:17;6.40;;;4.60;;
23716;SDS011;22094;52.130;5.598;2023-03-16T08:50:44;9.23;;;4.43;;
23716;SDS011;22094;52.130;5.598;2023-03-16T08:53:10;6.82;;;4.65;;
23716;SDS011;22094;52.130;5.598;2023-03-16T08:55:37;6.97;;;4.45;;
23716;SDS011;22094;52.130;5.598;2023-03-16T08:58:05;5.63;;;4.00;;
23716;SDS011;22094;52.130;5.598;2023-03-16T09:00:35;6.20;;;4.50;;
23716;SDS011;22094;52.130;5.598;2023-03-16T09:03:01;5.97;;;4.20;;
23716;SDS011;22094;52.130;5.598;2023-03-16T09:05:27;7.05;;;4.97;;
23716;SDS011;22094;52.130;5.598;2023-03-16T09:07:53;7.40;;;4.60;;
23716;SDS011;22094;52.130;5.598;2023-03-16T09:10:20;5.35;;;4.82;;
23716;SDS011;22094;52.130;5.598;2023-03-16T09:12:47;4.97;;;4.38;;
23716;SDS011;22094;52.130;5.598;2023-03-16T09:15:13;7.97;;;4.45;;
23716;SDS011;22094;52.130;5.598;2023-03-16T09:17:39;6.28;;;4.15;;
23716;SDS011;22094;52.130;5.598;2023-03-16T09:20:06;4.43;;;3.95;;
23716;SDS011;22094;52.130;5.598;2023-03-16T09:22:34;5.38;;;4.38;;
23716;SDS011;22094;52.130;5.598;2023-03-16T09:25:01;5.68;;;4.55;;
23716;SDS011;22094;52.130;5.598;2023-03-16T09:27:29;5.97;;;4.50;;
23716;SDS011;22094;52.130;5.598;2023-03-16T09:29:55;5.95;;;4.30;;
23716;SDS011;22094;52.130;5.598;2023-03-16T09:32:21;6.57;;;4.32;;
23716;SDS011;22094;52.130;5.598;2023-03-16T09:34:47;8.82;;;4.85;;
23716;SDS011;22094;52.130;5.598;2023-03-16T09:37:13;4.93;;;4.20;;
23716;SDS011;22094;52.130;5.598;2023-03-16T09:39:40;6.35;;;4.35;;
23716;SDS011;22094;52.130;5.598;2023-03-16T09:42:08;10.15;;;4.90;;
23716;SDS011;22094;52.130;5.598;2023-03-16T09:44:55;5.63;;;4.28;;
23716;SDS011;22094;52.130;5.598;2023-03-16T09:47:42;9.80;;;4.50;;
23716;SDS011;22094;52.130;5.598;2023-03-16T09:50:22;6.25;;;4.43;;
23716;SDS011;22094;52.130;5.598;2023-03-16T09:55:36;8.73;;;4.75;;
23716;SDS011;22094;52.130;5.598;2023-03-16T09:58:04;7.90;;;4.85;;
23716;SDS011;22094;52.130;5.598;2023-03-16T10:00:53;6.57;;;4.43;;
23716;SDS011;22094;52.130;5.598;2023-03-16T10:05:59;7.60;;;4.50;;
23716;SDS011;22094;52.130;5.598;2023-03-16T10:08:41;6.88;;;4.60;;
23716;SDS011;22094;52.130;5.598;2023-03-16T10:11:25;8.18;;;4.82;;
23716;SDS011;22094;52.130;5.598;2023-03-16T10:19:33;5.75;;;4.30;;
23716;SDS011;22094;52.130;5.598;2023-03-16T10:22:16;4.97;;;4.30;;
23716;SDS011;22094;52.130;5.598;2023-03-16T10:24:54;6.60;;;5.03;;
23716;SDS011;22094;52.130;5.598;2023-03-16T10:27:37;7.07;;;5.13;;
23716;SDS011;22094;52.130;5.598;2023-03-16T10:30:24;4.85;;;3.90;;
23716;SDS011;22094;52.130;5.598;2023-03-16T10:32:59;7.07;;;4.45;;
23716;SDS011;22094;52.130;5.598;2023-03-16T10:35:46;6.22;;;3.85;;
23716;SDS011;22094;52.130;5.598;2023-03-16T10:43:57;7.63;;;4.10;;
23716;SDS011;22094;52.130;5.598;2023-03-16T10:46:34;6.25;;;4.30;;
23716;SDS011;22094;52.130;5.598;2023-03-16T10:49:02;8.68;;;4.00;;
23716;SDS011;22094;52.130;5.598;2023-03-16T10:51:29;7.65;;;3.97;;
23716;SDS011;22094;52.130;5.598;2023-03-16T10:54:05;6.85;;;3.92;;
23716;SDS011;22094;52.130;5.598;2023-03-16T10:56:36;6.70;;;3.75;;
23716;SDS011;22094;52.130;5.598;2023-03-16T10:59:11;4.68;;;3.28;;
23716;SDS011;22094;52.130;5.598;2023-03-16T11:01:39;5.07;;;3.42;;
23716;SDS011;22094;52.130;5.598;2023-03-16T11:04:10;5.30;;;3.72;;
23716;SDS011;22094;52.130;5.598;2023-03-16T11:06:45;6.40;;;4.20;;
23716;SDS011;22094;52.130;5.598;2023-03-16T11:09:17;6.22;;;3.70;;
23716;SDS011;22094;52.130;5.598;2023-03-16T11:11:47;5.35;;;3.42;;
23716;SDS011;22094;52.130;5.598;2023-03-16T11:14:13;4.70;;;3.63;;
23716;SDS011;22094;52.130;5.598;2023-03-16T11:16:46;6.00;;;3.70;;
23716;SDS011;22094;52.130;5.598;2023-03-16T11:19:56;3.72;;;3.42;;
23716;SDS011;22094;52.130;5.598;2023-03-16T11:22:24;5.53;;;3.70;;
23716;SDS011;22094;52.130;5.598;2023-03-16T11:27:21;6.63;;;3.45;;
23716;SDS011;22094;52.130;5.598;2023-03-16T11:32:21;5.32;;;3.90;;
23716;SDS011;22094;52.130;5.598;2023-03-16T11:34:52;9.63;;;3.58;;
23716;SDS011;22094;52.130;5.598;2023-03-16T11:40:28;4.50;;;3.63;;
23716;SDS011;22094;52.130;5.598;2023-03-16T11:46:03;5.78;;;3.80;;
23716;SDS011;22094;52.130;5.598;2023-03-16T11:48:52;6.30;;;3.65;;
23716;SDS011;22094;52.130;5.598;2023-03-16T12:05:52;6.03;;;3.80;;
23716;SDS011;22094;52.130;5.598;2023-03-16T12:16:04;5.60;;;3.50;;
23716;SDS011;22094;52.130;5.598;2023-03-16T12:18:43;6.32;;;3.42;;
23716;SDS011;22094;52.130;5.598;2023-03-16T12:21:24;7.32;;;3.70;;
23716;SDS011;22094;52.130;5.598;2023-03-16T12:23:57;4.03;;;3.08;;
23716;SDS011;22094;52.130;5.598;2023-03-16T12:26:27;4.20;;;3.22;;
23716;SDS011;22094;52.130;5.598;2023-03-16T12:28:58;4.90;;;3.65;;
23716;SDS011;22094;52.130;5.598;2023-03-16T12:31:45;6.18;;;3.22;;
23716;SDS011;22094;52.130;5.598;2023-03-16T12:39:41;4.28;;;3.17;;
23716;SDS011;22094;52.130;5.598;2023-03-16T12:45:32;5.30;;;3.67;;
23716;SDS011;22094;52.130;5.598;2023-03-16T12:48:19;5.97;;;3.45;;
23716;SDS011;22094;52.130;5.598;2023-03-16T12:50:52;5.75;;;3.20;;
23716;SDS011;22094;52.130;5.598;2023-03-16T12:56:14;4.65;;;3.05;;
23716;SDS011;22094;52.130;5.598;2023-03-16T12:58:46;7.00;;;3.55;;
23716;SDS011;22094;52.130;5.598;2023-03-16T13:01:13;6.75;;;3.75;;
23716;SDS011;22094;52.130;5.598;2023-03-16T13:03:41;5.45;;;3.10;;
23716;SDS011;22094;52.130;5.598;2023-03-16T13:06:22;5.32;;;3.30;;
23716;SDS011;22094;52.130;5.598;2023-03-16T13:08:54;7.10;;;3.30;;
23716;SDS011;22094;52.130;5.598;2023-03-16T13:11:25;6.18;;;3.40;;
23716;SDS011;22094;52.130;5.598;2023-03-16T13:16:28;4.80;;;3.42;;
23716;SDS011;22094;52.130;5.598;2023-03-16T13:18:57;5.25;;;3.33;;
23716;SDS011;22094;52.130;5.598;2023-03-16T13:26:44;7.65;;;3.67;;
23716;SDS011;22094;52.130;5.598;2023-03-16T13:29:20;5.53;;;3.30;;
23716;SDS011;22094;52.130;5.598;2023-03-16T13:31:51;5.30;;;3.33;;
23716;SDS011;22094;52.130;5.598;2023-03-16T13:34:22;7.47;;;3.55;;
23716;SDS011;22094;52.130;5.598;2023-03-16T13:36:55;6.47;;;3.60;;
23716;SDS011;22094;52.130;5.598;2023-03-16T13:39:26;4.63;;;3.33;;
23716;SDS011;22094;52.130;5.598;2023-03-16T13:44:27;9.38;;;3.20;;
23716;SDS011;22094;52.130;5.598;2023-03-16T13:46:54;4.40;;;3.40;;
23716;SDS011;22094;52.130;5.598;2023-03-16T13:49:20;3.75;;;3.30;;
23716;SDS011;22094;52.130;5.598;2023-03-16T13:51:46;7.32;;;3.70;;
23716;SDS011;22094;52.130;5.598;2023-03-16T13:54:20;4.50;;;3.15;;
23716;SDS011;22094;52.130;5.598;2023-03-16T13:56:49;4.97;;;3.30;;
23716;SDS011;22094;52.130;5.598;2023-03-16T13:59:16;6.03;;;4.20;;
23716;SDS011;22094;52.130;5.598;2023-03-16T14:01:43;5.53;;;2.88;;
23716;SDS011;22094;52.130;5.598;2023-03-16T14:04:11;4.63;;;3.42;;
23716;SDS011;22094;52.130;5.598;2023-03-16T14:06:50;4.15;;;2.92;;
23716;SDS011;22094;52.130;5.598;2023-03-16T14:09:17;4.25;;;3.00;;
23716;SDS011;22094;52.130;5.598;2023-03-16T14:11:46;7.88;;;3.47;;
23716;SDS011;22094;52.130;5.598;2023-03-16T14:14:16;8.07;;;3.38;;
23716;SDS011;22094;52.130;5.598;2023-03-16T14:16:48;5.32;;;3.67;;
23716;SDS011;22094;52.130;5.598;2023-03-16T14:19:16;9.35;;;3.08;;
23716;SDS011;22094;52.130;5.598;2023-03-16T14:21:48;7.80;;;3.15;;
23716;SDS011;22094;52.130;5.598;2023-03-16T14:24:27;4.82;;;2.95;;
23716;SDS011;22094;52.130;5.598;2023-03-16T14:26:56;4.28;;;2.67;;
23716;SDS011;22094;52.130;5.598;2023-03-16T14:29:26;4.00;;;2.88;;
23716;SDS011;22094;52.130;5.598;2023-03-16T14:31:55;4.50;;;2.88;;
23716;SDS011;22094;52.130;5.598;2023-03-16T14:36:47;8.60;;;3.03;;
23716;SDS011;22094;52.130;5.598;2023-03-16T14:39:14;3.95;;;2.67;;
23716;SDS011;22094;52.130;5.598;2023-03-16T14:41:43;3.38;;;2.60;;
23716;SDS011;22094;52.130;5.598;2023-03-16T14:44:16;7.25;;;3.03;;
23716;SDS011;22094;52.130;5.598;2023-03-16T14:46:53;4.00;;;2.72;;
23716;SDS011;22094;52.130;5.598;2023-03-16T14:49:23;7.28;;;2.70;;
23716;SDS011;22094;52.130;5.598;2023-03-16T14:51:52;3.70;;;2.80;;
23716;SDS011;22094;52.130;5.598;2023-03-16T14:54:22;4.93;;;2.88;;
23716;SDS011;22094;52.130;5.598;2023-03-16T14:56:52;4.40;;;2.58;;
23716;SDS011;22094;52.130;5.598;2023-03-16T14:59:19;6.90;;;2.47;;
23716;SDS011;22094;52.130;5.598;2023-03-16T15:01:45;5.22;;;2.72;;
23716;SDS011;22094;52.130;5.598;2023-03-16T15:04:16;4.63;;;2.78;;
23716;SDS011;22094;52.130;5.598;2023-03-16T15:06:46;5.07;;;2.38;;
23716;SDS011;22094;52.130;5.598;2023-03-16T15:09:24;3.65;;;2.17;;
23716;SDS011;22094;52.130;5.598;2023-03-16T15:11:59;7.30;;;2.58;;
23716;SDS011;22094;52.130;5.598;2023-03-16T15:14:25;3.92;;;2.20;;
23716;SDS011;22094;52.130;5.598;2023-03-16T15:17:09;5.45;;;2.22;;
23716;SDS011;22094;52.130;5.598;2023-03-16T15:19:35;4.35;;;2.50;;
23716;SDS011;22094;52.130;5.598;2023-03-16T15:22:01;3.20;;;2.10;;
23716;SDS011;22094;52.130;5.598;2023-03-16T15:24:28;5.68;;;2.35;;
23716;SDS011;22094;52.130;5.598;2023-03-16T15:26:56;4.13;;;2.72;;
23716;SDS011;22094;52.130;5.598;2023-03-16T15:29:22;4.63;;;2.47;;
23716;SDS011;22094;52.130;5.598;2023-03-16T15:31:48;3.58;;;2.30;;
23716;SDS011;22094;52.130;5.598;2023-03-16T15:34:14;5.57;;;2.58;;
23716;SDS011;22094;52.130;5.598;2023-03-16T15:36:40;7.47;;;2.53;;
23716;SDS011;22094;52.130;5.598;2023-03-16T15:39:08;4.43;;;2.60;;
23716;SDS011;22094;52.130;5.598;2023-03-16T15:41:47;4.10;;;2.50;;
23716;SDS011;22094;52.130;5.598;2023-03-16T15:44:14;4.55;;;2.20;;
23716;SDS011;22094;52.130;5.598;2023-03-16T15:46:40;3.15;;;2.20;;
23716;SDS011;22094;52.130;5.598;2023-03-16T15:49:05;6.25;;;2.35;;
23716;SDS011;22094;52.130;5.598;2023-03-16T15:51:31;3.47;;;2.50;;
23716;SDS011;22094;52.130;5.598;2023-03-16T15:54:01;4.00;;;2.45;;
23716;SDS011;22094;52.130;5.598;2023-03-16T15:56:30;4.85;;;2.75;;
23716;SDS011;22094;52.130;5.598;2023-03-16T15:58:59;6.63;;;2.25;;
23716;SDS011;22094;52.130;5.598;2023-03-16T16:01:29;6.95;;;2.42;;
23716;SDS011;22094;52.130;5.598;2023-03-16T16:03:58;5.97;;;2.53;;
23716;SDS011;22094;52.130;5.598;2023-03-16T16:06:24;2.85;;;1.90;;
23716;SDS011;22094;52.130;5.598;2023-03-16T16:08:52;5.28;;;2.70;;
23716;SDS011;22094;52.130;5.598;2023-03-16T16:11:20;3.78;;;2.50;;
23716;SDS011;22094;52.130;5.598;2023-03-16T16:13:49;3.17;;;2.28;;
23716;SDS011;22094;52.130;5.598;2023-03-16T16:16:16;4.18;;;2.40;;
23716;SDS011;22094;52.130;5.598;2023-03-16T16:18:43;5.20;;;2.20;;
23716;SDS011;22094;52.130;5.598;2023-03-16T16:21:18;3.63;;;2.40;;